createdAt,value
2023-01-11T00:00:01.428Z,38.83
2023-01-11T00:02:39.905Z,39.93
2023-01-11T00:05:09.630Z,39.67
2023-01-11T00:07:37.717Z,39.83
2023-01-11T00:10:06.865Z,39.40
2023-01-11T00:12:34.973Z,39.60
2023-01-11T00:15:04.608Z,39.00
2023-01-11T00:17:32.730Z,36.63
2023-01-11T00:20:00.888Z,37.70
2023-01-11T00:22:29.040Z,39.03
2023-01-11T00:24:57.182Z,41.60
2023-01-11T00:27:25.291Z,41.00
2023-01-11T00:29:53.427Z,44.60
2023-01-11T00:32:22.970Z,45.07
2023-01-11T00:34:51.169Z,40.20
2023-01-11T00:37:19.492Z,40.10
2023-01-11T00:39:47.702Z,41.50
2023-01-11T00:42:33.480Z,41.23
2023-01-11T00:45:19.218Z,43.93
2023-01-11T00:48:01.978Z,43.97
2023-01-11T00:50:31.758Z,41.60
2023-01-11T00:53:00.365Z,42.33
2023-01-11T00:55:29.038Z,43.13
2023-01-11T00:57:57.147Z,43.67
2023-01-11T01:00:25.640Z,43.83
2023-01-11T01:02:55.640Z,42.47
2023-01-11T01:05:23.839Z,42.27
2023-01-11T01:07:52.032Z,41.53
2023-01-11T01:10:21.085Z,39.53
2023-01-11T01:13:06.199Z,40.67
2023-01-11T01:15:34.876Z,42.13
2023-01-11T01:18:04.443Z,46.63
2023-01-11T01:20:32.569Z,43.40
2023-01-11T01:23:01.318Z,45.83
2023-01-11T01:25:29.475Z,43.63
2023-01-11T01:27:57.728Z,42.93
2023-01-11T01:30:25.793Z,43.83
2023-01-11T01:32:53.877Z,46.17
2023-01-11T01:35:23.303Z,47.03
2023-01-11T01:37:51.367Z,46.83
2023-01-11T01:40:19.677Z,47.80
2023-01-11T01:42:47.767Z,47.20
2023-01-11T01:45:23.889Z,47.63
2023-01-11T01:47:57.462Z,47.30
2023-01-11T01:50:32.046Z,47.43
2023-01-11T01:53:03.786Z,47.27
2023-01-11T01:55:36.596Z,45.57
2023-01-11T01:58:10.883Z,47.30
2023-01-11T02:00:40.278Z,45.97
2023-01-11T02:03:11.240Z,47.00
2023-01-11T02:05:40.668Z,46.27
2023-01-11T02:08:17.840Z,46.77
2023-01-11T02:10:45.981Z,47.73
2023-01-11T02:13:14.568Z,47.47
2023-01-11T02:15:42.841Z,47.07
2023-01-11T02:18:12.381Z,45.93
2023-01-11T02:21:10.256Z,43.57
2023-01-11T02:23:53.665Z,44.47
2023-01-11T02:26:55.561Z,46.30
2023-01-11T02:29:39.898Z,46.40
2023-01-11T02:32:19.274Z,44.97
2023-01-11T02:34:54.669Z,44.10
2023-01-11T02:37:33.844Z,44.37
2023-01-11T02:40:09.252Z,42.07
2023-01-11T02:42:57.980Z,41.23
2023-01-11T02:45:42.418Z,40.73
2023-01-11T02:48:21.068Z,41.43
2023-01-11T02:50:55.104Z,43.67
2023-01-11T02:53:29.204Z,42.60
2023-01-11T02:56:00.605Z,43.33
2023-01-11T02:58:32.990Z,42.83
2023-01-11T03:01:02.868Z,44.70
2023-01-11T03:03:30.953Z,44.97
2023-01-11T03:06:03.379Z,47.67
2023-01-11T03:09:00.532Z,47.53
2023-01-11T03:12:00.729Z,47.87
2023-01-11T03:14:36.912Z,48.47
2023-01-11T03:17:17.389Z,50.00
2023-01-11T03:19:52.505Z,50.00
2023-01-11T03:22:27.396Z,51.83
2023-01-11T03:25:03.937Z,51.43
2023-01-11T03:27:37.147Z,51.50
2023-01-11T03:30:11.265Z,51.97
2023-01-11T03:32:48.487Z,52.70
2023-01-11T03:35:26.510Z,51.53
2023-01-11T03:38:00.538Z,51.83
2023-01-11T03:40:32.929Z,52.67
2023-01-11T03:43:14.750Z,52.07
2023-01-11T03:45:48.752Z,50.60
2023-01-11T03:48:21.990Z,51.10
2023-01-11T03:50:51.775Z,51.43
2023-01-11T03:53:22.011Z,52.53
2023-01-11T03:55:55.805Z,52.13
2023-01-11T03:58:24.492Z,51.70
2023-01-11T04:00:53.040Z,50.77
2023-01-11T04:03:24.345Z,53.43
2023-01-11T04:05:58.081Z,52.33
2023-01-11T04:08:26.355Z,53.87
2023-01-11T04:10:54.421Z,53.67
2023-01-11T04:13:22.498Z,53.70
2023-01-11T04:15:50.556Z,53.73
2023-01-11T04:18:18.718Z,53.30
2023-01-11T04:20:48.196Z,53.20
2023-01-11T04:23:21.133Z,53.73
2023-01-11T04:25:49.285Z,53.50
2023-01-11T04:28:17.448Z,54.30
2023-01-11T04:30:45.513Z,53.90
2023-01-11T04:33:14.589Z,55.97
2023-01-11T04:35:44.020Z,53.93
2023-01-11T04:38:13.547Z,55.50
2023-01-11T04:40:41.654Z,56.00
2023-01-11T04:43:08.726Z,54.77
2023-01-11T04:45:36.911Z,55.13
2023-01-11T04:48:05.188Z,55.57
2023-01-11T04:50:33.358Z,54.53
2023-01-11T04:53:01.491Z,56.37
2023-01-11T04:55:31.015Z,56.47
2023-01-11T04:57:59.177Z,59.57
2023-01-11T05:00:27.236Z,58.43
2023-01-11T05:02:55.393Z,56.63
2023-01-11T05:05:23.492Z,60.27
2023-01-11T05:07:51.685Z,61.23
2023-01-11T05:10:21.090Z,61.47
2023-01-11T05:12:50.648Z,61.73
2023-01-11T05:15:18.760Z,64.93
2023-01-11T05:17:46.831Z,64.40
2023-01-11T05:20:15.009Z,63.47
2023-01-11T05:22:43.188Z,67.10
2023-01-11T05:25:11.238Z,67.03
2023-01-11T05:27:39.291Z,65.40
2023-01-11T05:30:10.455Z,66.33
2023-01-11T05:32:38.644Z,66.43
2023-01-11T05:35:10.108Z,67.60
2023-01-11T05:37:38.231Z,68.77
2023-01-11T05:40:07.748Z,69.00
2023-01-11T05:42:35.934Z,67.83
2023-01-11T05:45:17.948Z,71.23
2023-01-11T05:47:47.395Z,73.90
2023-01-11T05:50:15.487Z,70.93
2023-01-11T05:52:43.640Z,71.63
2023-01-11T05:55:11.720Z,71.70
2023-01-11T05:57:42.192Z,71.87
2023-01-11T06:00:12.670Z,73.97
2023-01-11T06:02:40.967Z,71.83
2023-01-11T06:05:11.311Z,73.67
2023-01-11T06:07:40.154Z,70.87
2023-01-11T06:10:09.518Z,74.57
2023-01-11T06:12:37.596Z,71.03
2023-01-11T06:15:06.459Z,74.13
2023-01-11T06:17:34.494Z,73.83
2023-01-11T06:20:02.694Z,80.03
2023-01-11T06:22:32.109Z,79.30
2023-01-11T06:25:00.158Z,75.47
2023-01-11T06:27:28.279Z,70.37
2023-01-11T06:29:56.357Z,76.03
2023-01-11T06:32:24.472Z,75.07
2023-01-11T06:34:52.571Z,73.07
2023-01-11T06:37:20.617Z,78.83
2023-01-11T06:39:50.248Z,76.57
2023-01-11T06:42:18.370Z,76.03
2023-01-11T06:44:46.462Z,76.27
2023-01-11T06:47:14.641Z,76.40
2023-01-11T06:49:42.760Z,75.73
2023-01-11T06:52:10.780Z,75.27
2023-01-11T06:54:38.966Z,76.40
2023-01-11T06:57:08.427Z,73.57
2023-01-11T06:59:37.661Z,74.20
2023-01-11T07:02:06.046Z,72.60
2023-01-11T07:04:34.335Z,71.10
2023-01-11T07:07:02.483Z,70.13
2023-01-11T07:09:30.595Z,72.97
2023-01-11T07:11:58.635Z,73.03
2023-01-11T07:14:28.125Z,73.40
2023-01-11T07:16:56.252Z,74.30
2023-01-11T07:19:24.314Z,75.70
2023-01-11T07:21:52.407Z,74.40
2023-01-11T07:24:22.452Z,78.43
2023-01-11T07:26:53.424Z,83.83
2023-01-11T07:29:21.577Z,80.43
2023-01-11T07:31:51.021Z,77.90
2023-01-11T07:34:19.122Z,82.63
2023-01-11T07:36:47.208Z,81.17
2023-01-11T07:39:15.342Z,88.30
2023-01-11T07:42:01.013Z,88.90
2023-01-11T07:44:30.114Z,89.07
2023-01-11T07:46:59.695Z,87.87
2023-01-11T07:49:28.014Z,87.67
2023-01-11T07:51:56.107Z,88.33
2023-01-11T07:54:25.103Z,88.07
2023-01-11T07:56:53.204Z,87.00
2023-01-11T07:59:21.283Z,84.83
2023-01-11T08:01:49.483Z,86.33
2023-01-11T08:04:18.963Z,84.97
2023-01-11T08:06:47.103Z,84.97
2023-01-11T08:09:15.230Z,82.67
2023-01-11T08:12:00.767Z,82.77
2023-01-11T08:14:40.653Z,82.83
2023-01-11T08:17:09.696Z,83.97
2023-01-11T08:19:39.163Z,82.23
2023-01-11T08:22:07.640Z,82.77
2023-01-11T08:24:35.838Z,80.40
2023-01-11T08:27:04.486Z,86.90
2023-01-11T08:29:33.313Z,82.50
2023-01-11T08:32:01.545Z,73.77
2023-01-11T08:34:29.810Z,75.33
2023-01-11T08:37:02.059Z,73.20
2023-01-11T08:39:31.183Z,74.93
2023-01-11T08:41:59.616Z,74.50
2023-01-11T08:44:35.081Z,75.20
2023-01-11T08:47:03.850Z,74.60
2023-01-11T08:49:32.343Z,75.10
2023-01-11T08:52:01.834Z,78.23
2023-01-11T08:54:30.011Z,75.23
2023-01-11T08:56:58.089Z,80.13
2023-01-11T08:59:26.164Z,81.30
2023-01-11T09:01:54.277Z,84.90
2023-01-11T09:04:25.410Z,88.23
2023-01-11T09:06:54.060Z,84.60
2023-01-11T09:09:23.561Z,82.23
2023-01-11T09:11:58.950Z,82.13
2023-01-11T09:14:28.475Z,87.93
2023-01-11T09:16:57.318Z,80.17
2023-01-11T09:19:26.195Z,78.00
2023-01-11T09:21:56.905Z,73.13
2023-01-11T09:24:26.372Z,64.70
2023-01-11T09:26:54.426Z,55.70
2023-01-11T09:29:22.638Z,47.27
2023-01-11T09:31:50.758Z,41.67
2023-01-11T09:34:19.390Z,37.27
2023-01-11T09:36:48.886Z,37.47
2023-01-11T09:39:20.428Z,41.47
2023-01-11T09:42:20.794Z,42.00
2023-01-11T09:44:52.623Z,44.27
2023-01-11T09:47:31.651Z,44.23
2023-01-11T09:50:03.489Z,40.47
2023-01-11T09:52:39.737Z,40.17
2023-01-11T09:55:15.312Z,41.03
2023-01-11T09:57:54.446Z,39.77
2023-01-11T10:00:28.240Z,40.57
2023-01-11T10:03:21.072Z,40.17
2023-01-11T10:06:00.131Z,40.70
2023-01-11T10:18:31.860Z,36.73
2023-01-11T10:18:39.748Z,36.03
2023-01-11T10:20:46.667Z,33.40
2023-01-11T10:23:24.991Z,35.00
2023-01-11T10:25:56.704Z,33.10
2023-01-11T10:28:33.241Z,31.87
2023-01-11T10:31:26.515Z,32.03
2023-01-11T10:34:09.341Z,29.47
2023-01-11T10:37:04.901Z,25.40
2023-01-11T10:39:59.248Z,25.13
2023-01-11T10:42:31.290Z,27.43
2023-01-11T10:45:05.213Z,27.53
2023-01-11T10:47:39.866Z,25.03
2023-01-11T10:50:20.797Z,24.87
2023-01-11T10:52:56.254Z,24.90
2023-01-11T10:55:30.724Z,22.67
2023-01-11T10:58:09.491Z,21.37
2023-01-11T11:00:47.577Z,19.20
2023-01-11T11:03:45.771Z,19.50
2023-01-11T11:06:24.836Z,18.97
2023-01-11T11:08:58.843Z,20.17
2023-01-11T11:11:33.675Z,20.63
2023-01-11T11:14:07.560Z,20.03
2023-01-11T11:16:47.636Z,19.63
2023-01-11T11:19:22.468Z,17.93
2023-01-11T11:21:52.422Z,18.10
2023-01-11T11:24:27.686Z,17.57
2023-01-11T11:27:02.405Z,18.37
2023-01-11T11:29:30.928Z,18.20
2023-01-11T11:32:02.003Z,17.97
2023-01-11T11:34:31.623Z,18.27
2023-01-11T11:37:01.700Z,17.90
2023-01-11T11:39:32.105Z,18.13
2023-01-11T11:42:08.027Z,18.10
2023-01-11T11:44:36.439Z,17.13
2023-01-11T11:47:07.177Z,17.37
2023-01-11T11:49:38.460Z,17.67
2023-01-11T11:52:09.491Z,16.07
2023-01-11T11:54:41.526Z,16.00
2023-01-11T11:57:18.301Z,15.17
2023-01-11T11:59:48.707Z,16.43
2023-01-11T12:02:25.666Z,16.00
2023-01-11T12:04:57.867Z,15.67
2023-01-11T12:07:31.076Z,15.97
2023-01-11T12:10:02.285Z,16.20
2023-01-11T12:12:34.356Z,15.40
2023-01-11T12:15:09.641Z,14.83
2023-01-11T12:17:38.424Z,14.03
2023-01-11T12:20:28.556Z,13.43
2023-01-11T12:23:15.349Z,12.33
2023-01-11T12:25:54.721Z,12.13
2023-01-11T12:28:31.717Z,12.97
2023-01-11T12:31:09.703Z,11.13
2023-01-11T12:33:49.371Z,11.47
2023-01-11T12:36:28.227Z,10.93
2023-01-11T12:39:05.558Z,11.10
2023-01-11T12:41:56.369Z,10.90
2023-01-11T12:44:43.422Z,10.83
2023-01-11T12:47:42.709Z,10.03
2023-01-11T12:50:19.067Z,11.23
2023-01-11T12:53:09.337Z,9.50
2023-01-11T12:55:48.684Z,10.03
2023-01-11T12:58:24.928Z,9.20
2023-01-11T13:01:09.305Z,9.37
2023-01-11T13:04:03.716Z,10.90
2023-01-11T13:06:37.603Z,10.57
2023-01-11T13:09:21.416Z,11.23
2023-01-11T13:11:58.776Z,10.47
2023-01-11T13:14:43.249Z,11.00
2023-01-11T13:17:24.342Z,10.90
2023-01-11T13:20:03.808Z,10.93
2023-01-11T13:22:40.220Z,11.43
2023-01-11T13:25:18.368Z,11.53
2023-01-11T13:27:49.699Z,10.80
2023-01-11T13:30:20.228Z,10.60
2023-01-11T13:32:54.235Z,11.00
2023-01-11T13:35:33.057Z,11.80
2023-01-11T13:38:11.020Z,12.37
2023-01-11T13:40:47.585Z,11.37
2023-01-11T13:43:20.741Z,11.33
2023-01-11T13:45:53.795Z,12.37
2023-01-11T13:48:28.521Z,11.97
2023-01-11T13:51:04.676Z,12.73
2023-01-11T13:53:40.202Z,13.97
2023-01-11T13:56:15.948Z,14.60
2023-01-11T13:58:51.673Z,14.50
2023-01-11T14:01:22.232Z,15.13
2023-01-11T14:03:55.370Z,14.53
2023-01-11T14:06:35.815Z,15.20
2023-01-11T14:09:17.113Z,14.47
2023-01-11T14:11:53.585Z,15.73
2023-01-11T14:14:41.722Z,15.97
2023-01-11T14:17:30.066Z,14.53
2023-01-11T14:20:08.540Z,15.80
2023-01-11T14:22:43.218Z,15.33
2023-01-11T14:25:19.577Z,14.67
2023-01-11T14:28:09.758Z,14.10
2023-01-11T14:31:19.726Z,14.20
2023-01-11T14:34:32.856Z,14.83
2023-01-11T14:37:23.598Z,15.80
2023-01-11T14:40:24.368Z,15.70
2023-01-11T14:43:23.147Z,16.33
2023-01-11T14:46:15.925Z,16.27
2023-01-11T14:48:52.312Z,17.50
2023-01-11T14:51:33.290Z,17.93
2023-01-11T14:54:06.577Z,18.67
2023-01-11T14:56:54.232Z,20.20
2023-01-11T14:59:38.156Z,19.47
2023-01-11T15:02:26.397Z,21.03
2023-01-11T15:05:11.935Z,20.03
2023-01-11T15:07:42.814Z,20.27
2023-01-11T15:10:50.601Z,19.23
2023-01-11T15:13:22.123Z,20.73
2023-01-11T15:16:08.551Z,20.67
2023-01-11T15:18:46.873Z,20.73
2023-01-11T15:21:22.684Z,20.00
2023-01-11T15:23:54.420Z,22.03
2023-01-11T15:26:24.776Z,23.17
2023-01-11T15:28:54.413Z,21.10
2023-01-11T15:31:35.744Z,24.33
2023-01-11T15:34:18.629Z,24.57
2023-01-11T15:36:57.021Z,28.10
2023-01-11T15:39:34.959Z,32.67
2023-01-11T15:42:25.335Z,30.50
2023-01-11T15:45:15.070Z,27.17
2023-01-11T15:48:02.273Z,27.70
2023-01-11T15:50:52.761Z,28.03
2023-01-11T15:53:41.966Z,27.70
2023-01-11T15:56:42.617Z,26.87
2023-01-11T16:00:02.671Z,26.63
2023-01-11T16:03:24.439Z,24.83
2023-01-11T16:05:59.914Z,27.63
2023-01-11T16:08:34.274Z,28.17
2023-01-11T16:11:14.314Z,28.33
2023-01-11T16:14:08.110Z,28.20
2023-01-11T16:16:41.427Z,28.03
2023-01-11T16:19:17.280Z,29.17
2023-01-11T16:21:49.813Z,30.23
2023-01-11T16:24:20.788Z,30.63
2023-01-11T16:26:54.451Z,31.60
2023-01-11T16:29:25.502Z,32.33
2023-01-11T16:31:59.331Z,34.33
2023-01-11T16:34:29.023Z,36.93
2023-01-11T16:36:58.709Z,35.00
2023-01-11T16:39:30.558Z,35.87
2023-01-11T16:42:03.346Z,37.70
2023-01-11T16:44:41.795Z,39.57
2023-01-11T16:47:15.755Z,40.70
2023-01-11T16:49:49.078Z,41.33
2023-01-11T16:52:44.643Z,42.70
2023-01-11T16:55:37.021Z,43.27
2023-01-11T16:58:07.892Z,42.77
2023-01-11T17:00:39.644Z,42.80
2023-01-11T17:03:30.200Z,43.40
2023-01-11T17:06:15.380Z,45.87
2023-01-11T17:08:45.380Z,44.30
2023-01-11T17:11:35.768Z,46.17
2023-01-11T17:14:20.395Z,47.53
2023-01-11T17:16:50.701Z,46.67
2023-01-11T17:19:21.096Z,46.73
2023-01-11T17:21:51.776Z,46.17
2023-01-11T17:24:23.980Z,45.80
2023-01-11T17:26:56.630Z,44.77
2023-01-11T17:29:29.763Z,49.13
2023-01-11T17:31:59.474Z,50.03
2023-01-11T17:34:31.329Z,50.67
2023-01-11T17:37:00.822Z,48.73
2023-01-11T17:39:32.352Z,49.17
2023-01-11T17:42:22.053Z,51.33
2023-01-11T17:45:08.526Z,51.20
2023-01-11T17:47:39.881Z,50.97
2023-01-11T17:50:18.854Z,51.87
2023-01-11T17:52:54.657Z,52.80
2023-01-11T17:55:26.234Z,54.33
2023-01-11T17:58:19.773Z,52.27
2023-01-11T18:01:11.551Z,50.93
2023-01-11T18:03:45.298Z,53.23
2023-01-11T18:06:15.216Z,51.67
2023-01-11T18:08:49.143Z,53.70
2023-01-11T18:11:25.288Z,50.57
2023-01-11T18:13:56.705Z,53.10
2023-01-11T18:16:25.702Z,52.97
2023-01-11T18:18:54.974Z,54.17
2023-01-11T18:21:41.296Z,54.13
2023-01-11T18:24:43.154Z,54.77
2023-01-11T18:27:25.118Z,54.53
2023-01-11T18:29:56.035Z,55.13
2023-01-11T18:32:24.419Z,56.63
2023-01-11T18:34:54.898Z,56.30
2023-01-11T18:37:23.556Z,55.73
2023-01-11T18:39:53.142Z,56.73
2023-01-11T18:42:28.058Z,58.17
2023-01-11T18:44:57.644Z,57.67
2023-01-11T18:47:28.537Z,56.93
2023-01-11T18:49:57.231Z,55.87
2023-01-11T18:52:27.804Z,56.67
2023-01-11T18:54:57.082Z,55.23
2023-01-11T18:57:25.878Z,57.97
2023-01-11T18:59:54.398Z,57.67
2023-01-11T19:02:26.945Z,58.13
2023-01-11T19:04:56.860Z,57.47
2023-01-11T19:07:26.783Z,59.67
2023-01-11T19:09:56.015Z,59.20
2023-01-11T19:12:24.551Z,60.10
2023-01-11T19:14:52.775Z,59.23
2023-01-11T19:17:21.013Z,60.77
2023-01-11T19:19:50.514Z,60.70
2023-01-11T19:22:18.792Z,61.07
2023-01-11T19:24:46.938Z,62.13
2023-01-11T19:27:15.577Z,63.57
2023-01-11T19:29:43.794Z,63.20
2023-01-11T19:32:11.896Z,65.20
2023-01-11T19:34:41.146Z,65.30
2023-01-11T19:37:10.606Z,65.33
2023-01-11T19:39:40.235Z,65.97
2023-01-11T19:42:08.361Z,68.60
2023-01-11T19:44:38.972Z,65.80
2023-01-11T19:47:12.978Z,66.50
2023-01-11T19:49:42.169Z,65.17
2023-01-11T19:52:14.211Z,63.93
2023-01-11T19:54:43.497Z,64.20
2023-01-11T19:57:12.242Z,66.13
2023-01-11T19:59:40.468Z,64.37
2023-01-11T20:02:09.079Z,68.37
2023-01-11T20:04:37.365Z,66.70
2023-01-11T20:07:05.781Z,66.67
2023-01-11T20:09:37.622Z,67.83
2023-01-11T20:12:06.075Z,69.83
2023-01-11T20:14:34.612Z,72.60
2023-01-11T20:17:03.349Z,71.17
2023-01-11T20:19:32.120Z,71.20
2023-01-11T20:22:00.366Z,68.77
2023-01-11T20:24:30.088Z,67.70
2023-01-11T20:27:01.832Z,68.07
2023-01-11T20:29:37.128Z,71.03
2023-01-11T20:32:27.835Z,70.27
2023-01-11T20:34:53.892Z,69.83
2023-01-11T20:37:22.099Z,70.73
2023-01-11T20:39:50.239Z,73.20
2023-01-11T20:42:19.685Z,74.07
2023-01-11T20:44:48.050Z,75.93
2023-01-11T20:47:16.137Z,74.80
2023-01-11T20:49:44.204Z,77.53
2023-01-11T20:52:12.303Z,78.70
2023-01-11T20:54:40.370Z,80.97
2023-01-11T20:57:12.592Z,77.73
2023-01-11T20:59:42.271Z,82.20
2023-01-11T21:02:13.658Z,81.17
2023-01-11T21:04:41.788Z,79.90
2023-01-11T21:07:09.920Z,86.30
2023-01-11T21:09:38.125Z,86.03
2023-01-11T21:12:08.782Z,85.63
2023-01-11T21:14:37.605Z,86.97
2023-01-11T21:17:07.094Z,87.20
2023-01-11T21:19:35.197Z,84.53
2023-01-11T21:22:03.303Z,85.43
2023-01-11T21:24:31.855Z,81.13
2023-01-11T21:26:59.948Z,77.57
2023-01-11T21:29:28.044Z,78.07
2023-01-11T21:31:56.111Z,79.33
2023-01-11T21:34:25.706Z,81.33
2023-01-11T21:36:53.914Z,77.77
2023-01-11T21:39:22.077Z,72.33
2023-01-11T21:41:59.854Z,69.43
2023-01-11T21:44:31.900Z,76.13
2023-01-11T21:47:00.654Z,78.07
2023-01-11T21:49:30.149Z,81.30
2023-01-11T21:51:58.612Z,78.27
2023-01-11T21:54:27.113Z,73.13
2023-01-11T21:56:55.170Z,71.63
2023-01-11T21:59:23.413Z,69.13
2023-01-11T22:01:51.523Z,70.07
2023-01-11T22:04:21.679Z,73.33
2023-01-11T22:06:58.096Z,72.77
2023-01-11T22:09:27.728Z,72.30
2023-01-11T22:11:56.309Z,73.30
2023-01-11T22:14:24.481Z,81.60
2023-01-11T22:16:52.638Z,78.73
2023-01-11T22:19:21.045Z,69.60
2023-01-11T22:21:50.588Z,69.70
2023-01-11T22:24:18.657Z,68.97
2023-01-11T22:26:46.749Z,66.50
2023-01-11T22:29:17.839Z,63.73
2023-01-11T22:31:48.937Z,58.93
2023-01-11T22:34:17.552Z,60.03
2023-01-11T22:36:46.608Z,56.37
2023-01-11T22:39:19.530Z,55.77
2023-01-11T22:41:48.526Z,52.60
2023-01-11T22:44:17.088Z,50.27
2023-01-11T22:46:45.596Z,45.33
2023-01-11T22:49:13.828Z,43.20
2023-01-11T22:51:42.620Z,44.70
2023-01-11T22:54:11.829Z,38.13
2023-01-11T22:56:41.902Z,44.13
2023-01-11T22:59:10.280Z,49.47
2023-01-11T23:01:40.375Z,56.87
2023-01-11T23:04:11.467Z,59.27
2023-01-11T23:06:41.840Z,59.57
2023-01-11T23:09:15.946Z,47.13
2023-01-11T23:12:04.310Z,43.30
2023-01-11T23:14:33.802Z,33.13
2023-01-11T23:17:05.168Z,41.43
2023-01-11T23:19:33.496Z,46.50
2023-01-11T23:22:01.623Z,47.93
2023-01-11T23:24:29.906Z,45.93
2023-01-11T23:26:59.615Z,43.57
2023-01-11T23:29:27.902Z,45.07
2023-01-11T23:31:56.066Z,43.40
2023-01-11T23:34:24.456Z,44.00
2023-01-11T23:36:52.504Z,41.83
2023-01-11T23:39:20.866Z,39.17
2023-01-11T23:42:06.375Z,37.10
2023-01-11T23:44:36.307Z,39.37
2023-01-11T23:47:21.551Z,38.53
2023-01-11T23:49:50.655Z,39.87
2023-01-11T23:52:19.584Z,41.37
2023-01-11T23:54:47.809Z,39.97
2023-01-11T23:57:17.180Z,43.40
2023-01-11T23:59:46.863Z,42.67
